Time,TemperatureF,DewpointF,PressureIn,WindDirection,WindDirectionDegrees,WindSpeedMPH,WindSpeedGustMPH,Humidity,HourlyPrecipIn,Conditions,Clouds,dailyrainin,SoftwareType,DateUTC
2013-03-07 00:02:00,39.9,31.6,29.93,SE,124,0.0,9.0,72,0.01,,,0.32,meteohub,2013-03-07 08:02:00,
2013-03-07 00:08:00,39.9,31.6,29.93,SSW,211,3.0,9.0,72,0.01,,,0.00,meteohub,2013-03-07 08:08:00,
2013-03-07 00:13:00,39.9,31.6,29.94,ESE,120,4.0,7.0,72,0.01,,,0.00,meteohub,2013-03-07 08:13:00,
2013-03-07 00:18:00,39.9,31.6,29.94,ESE,122,2.0,7.0,72,0.01,,,0.00,meteohub,2013-03-07 08:18:00,
2013-03-07 00:23:00,39.9,32.0,29.94,East,98,0.0,7.0,73,0.01,,,0.00,meteohub,2013-03-07 08:23:00,
2013-03-07 00:28:00,39.9,32.0,29.94,SE,124,1.0,7.0,73,0.01,,,0.00,meteohub,2013-03-07 08:28:00,
2013-03-07 00:34:00,39.9,32.0,29.94,SE,131,1.0,5.0,73,0.01,,,0.00,meteohub,2013-03-07 08:34:00,
2013-03-07 00:39:00,40.1,32.2,29.94,SE,134,1.0,5.0,73,0.01,,,0.00,meteohub,2013-03-07 08:39:00,
2013-03-07 00:44:00,40.1,32.5,29.94,ESE,122,0.0,6.0,74,0.01,,,0.00,meteohub,2013-03-07 08:44:00,
2013-03-07 00:49:00,40.3,32.7,29.95,ESE,121,2.0,6.0,74,0.01,,,0.00,meteohub,2013-03-07 08:49:00,
2013-03-07 00:55:00,40.3,33.1,29.95,ESE,121,0.0,6.0,75,0.00,,,0.00,meteohub,2013-03-07 08:55:00,
2013-03-07 01:00:00,40.3,33.1,29.95,ESE,121,0.0,4.0,75,0.00,,,0.00,meteohub,2013-03-07 09:00:00,
2013-03-07 01:06:00,40.3,33.1,29.95,SE,125,0.0,4.0,75,0.00,,,0.00,meteohub,2013-03-07 09:06:00,
2013-03-07 01:11:00,40.3,33.1,29.95,SE,125,0.0,4.0,75,0.00,,,0.00,meteohub,2013-03-07 09:11:00,
2013-03-07 01:16:00,40.1,32.9,29.96,SE,125,0.0,4.0,75,0.00,,,0.00,meteohub,2013-03-07 09:16:00,
2013-03-07 01:21:00,40.1,32.9,29.96,ESE,121,0.0,3.0,75,0.00,,,0.00,meteohub,2013-03-07 09:21:00,
2013-03-07 01:26:00,40.1,32.9,29.96,ESE,123,0.0,3.0,75,0.00,,,0.00,meteohub,2013-03-07 09:26:00,
2013-03-07 01:32:00,39.9,32.7,29.96,ESE,117,3.0,3.0,75,0.00,,,0.00,meteohub,2013-03-07 09:32:00,
2013-03-07 01:37:00,40.3,33.1,29.96,SE,132,0.0,3.0,75,0.00,,,0.00,meteohub,2013-03-07 09:37:00,
2013-03-07 01:42:00,40.3,33.1,29.96,SE,132,0.0,3.0,75,0.00,,,0.00,meteohub,2013-03-07 09:42:00,
2013-03-07 01:47:00,40.3,33.3,29.96,SE,132,0.0,3.0,76,0.00,,,0.00,meteohub,2013-03-07 09:47:00,
2013-03-07 01:52:00,40.5,33.4,29.96,SE,124,0.0,4.0,76,0.00,,,0.00,meteohub,2013-03-07 09:52:00,
2013-03-07 01:57:00,40.5,33.4,29.96,ESE,122,0.0,4.0,76,0.00,,,0.00,meteohub,2013-03-07 09:57:00,
2013-03-07 02:05:00,40.3,33.3,29.96,ESE,122,0.0,4.0,76,0.00,,,0.00,meteohub,2013-03-07 10:05:00,
2013-03-07 02:10:00,40.3,33.3,29.97,SE,128,0.0,3.0,76,0.00,,,0.00,meteohub,2013-03-07 10:10:00,
2013-03-07 02:15:00,40.3,33.3,29.97,SE,128,0.0,4.0,76,0.00,,,0.00,meteohub,2013-03-07 10:15:00,
2013-03-07 02:20:00,40.1,33.1,29.97,SE,126,0.0,4.0,76,0.00,,,0.00,meteohub,2013-03-07 10:20:00,
2013-03-07 02:26:00,40.1,33.1,29.97,SE,125,3.0,4.0,76,0.00,,,0.00,meteohub,2013-03-07 10:26:00,
2013-03-07 02:32:00,40.5,33.4,29.97,ESE,119,0.0,4.0,76,0.00,,,0.00,meteohub,2013-03-07 10:32:00,
2013-03-07 02:37:00,40.3,33.3,29.97,ESE,119,0.0,4.0,76,0.00,,,0.00,meteohub,2013-03-07 10:37:00,
2013-03-07 02:42:00,40.3,33.3,29.97,ESE,120,1.0,4.0,76,0.00,,,0.00,meteohub,2013-03-07 10:42:00,
2013-03-07 02:47:00,40.3,33.3,29.97,ESE,120,0.0,3.0,76,0.00,,,0.00,meteohub,2013-03-07 10:47:00,
2013-03-07 02:52:00,40.3,33.3,29.97,ESE,120,0.0,3.0,76,0.00,,,0.00,meteohub,2013-03-07 10:52:00,
2013-03-07 02:57:00,40.3,33.6,29.97,ESE,120,0.0,2.0,77,0.00,,,0.00,meteohub,2013-03-07 10:57:00,
2013-03-07 03:02:00,40.3,33.6,29.97,ESE,120,0.0,2.0,77,0.00,,,0.00,meteohub,2013-03-07 11:02:00,
2013-03-07 03:07:00,40.1,33.1,29.98,ESE,120,0.0,2.0,76,0.00,,,0.00,meteohub,2013-03-07 11:07:00,
2013-03-07 03:12:00,40.1,33.1,29.98,ESE,116,1.0,0.0,76,0.00,,,0.00,meteohub,2013-03-07 11:12:00,
2013-03-07 03:17:00,39.9,32.9,29.98,ESE,116,0.0,2.0,76,0.00,,,0.00,meteohub,2013-03-07 11:17:00,
2013-03-07 03:22:00,39.9,32.9,29.98,ESE,116,0.0,2.0,76,0.00,,,0.00,meteohub,2013-03-07 11:22:00,
2013-03-07 03:27:00,39.7,32.7,29.98,ESE,116,0.0,2.0,76,0.00,,,0.00,meteohub,2013-03-07 11:27:00,
2013-03-07 03:32:00,39.7,32.5,29.98,ESE,123,1.0,2.0,75,0.00,,,0.00,meteohub,2013-03-07 11:32:00,
2013-03-07 03:37:00,39.7,32.5,29.98,ESE,123,0.0,2.0,75,0.00,,,0.00,meteohub,2013-03-07 11:37:00,
2013-03-07 03:42:00,39.6,32.4,29.98,ESE,123,0.0,2.0,75,0.00,,,0.00,meteohub,2013-03-07 11:42:00,
2013-03-07 03:47:00,39.6,32.4,29.98,ESE,123,0.0,2.0,75,0.00,,,0.00,meteohub,2013-03-07 11:47:00,
2013-03-07 03:52:00,39.6,32.4,29.98,ESE,123,0.0,0.0,75,0.00,,,0.00,meteohub,2013-03-07 11:52:00,
2013-03-07 03:57:00,39.6,32.4,29.98,ESE,123,0.0,0.0,75,0.00,,,0.00,meteohub,2013-03-07 11:57:00,
2013-03-07 04:02:00,39.4,31.8,29.99,SSE,149,0.0,0.0,74,0.00,,,0.00,meteohub,2013-03-07 12:02:00,
2013-03-07 04:07:00,39.4,31.8,29.99,SSE,149,0.0,2.0,74,0.00,,,0.00,meteohub,2013-03-07 12:07:00,
2013-03-07 04:12:00,39.4,31.8,29.99,ESE,107,0.0,3.0,74,0.00,,,0.00,meteohub,2013-03-07 12:12:00,
2013-03-07 04:17:00,39.4,31.8,29.99,ESE,107,0.0,3.0,74,0.00,,,0.00,meteohub,2013-03-07 12:17:00,
2013-03-07 04:22:00,39.6,32.0,29.99,ESE,107,0.0,3.0,74,0.00,,,0.00,meteohub,2013-03-07 12:22:00,
2013-03-07 04:27:00,39.6,32.0,29.99,South,190,0.0,3.0,74,0.00,,,0.00,meteohub,2013-03-07 12:27:00,
2013-03-07 04:32:00,39.7,32.5,29.99,SW,215,2.0,3.0,75,0.00,,,0.00,meteohub,2013-03-07 12:32:00,
2013-03-07 04:37:00,39.9,32.9,29.99,SSE,163,0.0,4.0,76,0.00,,,0.00,meteohub,2013-03-07 12:37:00,
2013-03-07 04:42:00,40.3,33.6,29.99,South,171,2.0,4.0,77,0.00,,,0.00,meteohub,2013-03-07 12:42:00,
2013-03-07 04:47:00,40.3,34.0,29.99,South,178,1.0,4.0,78,0.00,,,0.00,meteohub,2013-03-07 12:47:00,
2013-03-07 04:52:00,40.5,34.7,29.99,South,188,3.0,4.0,80,0.00,,,0.00,meteohub,2013-03-07 12:52:00,
2013-03-07 04:57:00,40.8,35.4,30.00,South,176,0.0,5.0,81,0.00,,,0.00,meteohub,2013-03-07 12:57:00,
2013-03-07 05:02:00,40.8,36.1,30.00,SSW,204,3.0,5.0,83,0.00,,,0.00,meteohub,2013-03-07 13:02:00,
2013-03-07 05:07:00,41.2,36.7,30.00,South,175,3.0,8.0,84,0.00,,,0.00,meteohub,2013-03-07 13:07:00,
2013-03-07 05:12:00,41.2,36.7,30.00,South,171,0.0,8.0,84,0.00,,,0.00,meteohub,2013-03-07 13:12:00,
2013-03-07 05:17:00,41.2,37.0,30.00,SSE,162,0.0,8.0,85,0.00,,,0.00,meteohub,2013-03-07 13:17:00,
2013-03-07 05:25:00,41.2,37.0,30.00,SSE,161,0.0,7.0,85,0.00,,,0.00,meteohub,2013-03-07 13:25:00,
2013-03-07 05:30:00,41.0,36.5,30.00,SSE,162,1.0,7.0,84,0.00,,,0.00,meteohub,2013-03-07 13:30:00,
2013-03-07 05:35:00,40.8,36.3,30.00,SE,124,2.0,5.0,84,0.00,,,0.00,meteohub,2013-03-07 13:35:00,
2013-03-07 05:41:00,40.8,36.7,30.00,SE,129,0.0,4.0,85,0.00,,,0.00,meteohub,2013-03-07 13:41:00,
2013-03-07 05:46:00,40.6,36.5,30.00,SE,126,1.0,5.0,85,0.00,,,0.00,meteohub,2013-03-07 13:46:00,
2013-03-07 05:51:00,40.8,36.7,30.01,SE,125,0.0,7.0,85,0.00,,,0.00,meteohub,2013-03-07 13:51:00,
2013-03-07 05:56:00,40.8,36.7,30.01,SE,130,0.0,7.0,85,0.00,,,0.00,meteohub,2013-03-07 13:56:00,
2013-03-07 06:01:00,40.6,36.5,30.01,SSE,150,0.0,7.0,85,0.00,,,0.00,meteohub,2013-03-07 14:01:00,
2013-03-07 06:06:00,40.6,36.5,30.01,SSE,159,0.0,7.0,85,0.00,,,0.00,meteohub,2013-03-07 14:06:00,
2013-03-07 06:12:00,40.6,36.5,30.01,SSE,167,1.0,4.0,85,0.00,,,0.00,meteohub,2013-03-07 14:12:00,
2013-03-07 06:17:00,40.6,36.5,30.01,SSW,200,0.0,4.0,85,0.00,,,0.00,meteohub,2013-03-07 14:17:00,
2013-03-07 06:22:00,40.6,36.5,30.01,ESE,113,0.0,2.0,85,0.00,,,0.00,meteohub,2013-03-07 14:22:00,
2013-03-07 06:27:00,40.6,36.5,30.01,ESE,112,0.0,2.0,85,0.00,,,0.00,meteohub,2013-03-07 14:27:00,
2013-03-07 06:32:00,40.8,36.7,30.02,ESE,112,0.0,3.0,85,0.00,,,0.00,meteohub,2013-03-07 14:32:00,
2013-03-07 06:37:00,40.6,36.5,30.02,ESE,112,0.0,3.0,85,0.00,,,0.00,meteohub,2013-03-07 14:37:00,
2013-03-07 06:42:00,40.6,36.1,30.02,ESE,112,0.0,2.0,84,0.00,,,0.00,meteohub,2013-03-07 14:42:00,
2013-03-07 06:47:00,40.6,36.1,30.02,ESE,112,0.0,1.0,84,0.00,,,0.00,meteohub,2013-03-07 14:47:00,
2013-03-07 06:52:00,40.5,36.0,30.02,ESE,112,0.0,1.0,84,0.00,,,0.00,meteohub,2013-03-07 14:52:00,
2013-03-07 06:57:00,40.5,36.0,30.02,ESE,112,2.0,2.0,84,0.00,,,0.00,meteohub,2013-03-07 14:57:00,
2013-03-07 07:02:00,40.5,35.8,30.02,ESE,112,0.0,2.0,83,0.00,,,0.00,meteohub,2013-03-07 15:02:00,
2013-03-07 07:07:00,40.5,35.4,30.02,ESE,112,0.0,2.0,82,0.00,,,0.00,meteohub,2013-03-07 15:07:00,
2013-03-07 07:12:00,40.5,35.4,30.03,ESE,112,0.0,2.0,82,0.00,,,0.00,meteohub,2013-03-07 15:12:00,
2013-03-07 07:17:00,40.5,35.1,30.03,ESE,112,0.0,2.0,81,0.00,,,0.00,meteohub,2013-03-07 15:17:00,
2013-03-07 07:22:00,40.6,35.2,30.03,ESE,112,0.0,2.0,81,0.00,,,0.00,meteohub,2013-03-07 15:22:00,
2013-03-07 07:27:00,40.8,35.4,30.03,ESE,112,0.0,1.0,81,0.00,,,0.00,meteohub,2013-03-07 15:27:00,
2013-03-07 07:32:00,41.2,36.7,30.03,SE,127,0.0,7.0,84,0.00,,,0.00,meteohub,2013-03-07 15:32:00,
2013-03-07 07:38:00,41.4,37.2,30.03,South,188,2.0,7.0,85,0.00,,,0.00,meteohub,2013-03-07 15:38:00,
2013-03-07 07:43:00,41.7,37.6,30.04,ESE,104,0.0,7.0,85,0.00,,,0.00,meteohub,2013-03-07 15:43:00,
2013-03-07 07:50:00,41.9,37.8,30.04,ESE,104,0.0,7.0,85,0.00,,,0.00,meteohub,2013-03-07 15:50:00,
2013-03-07 07:55:00,42.3,38.1,30.04,ESE,104,0.0,7.0,85,0.00,,,0.00,meteohub,2013-03-07 15:55:00,
2013-03-07 08:00:00,42.4,37.9,30.04,SSW,195,4.0,4.0,84,0.00,,,0.00,meteohub,2013-03-07 16:00:00,
2013-03-07 08:05:00,42.6,38.1,30.04,SSE,163,0.0,3.0,84,0.00,,,0.00,meteohub,2013-03-07 16:05:00,
2013-03-07 08:10:00,42.8,38.3,30.04,SSE,163,0.0,5.0,84,0.00,,,0.00,meteohub,2013-03-07 16:10:00,
2013-03-07 08:15:00,43.0,38.5,30.04,SSE,163,0.0,5.0,84,0.00,,,0.00,meteohub,2013-03-07 16:15:00,
2013-03-07 08:20:00,43.2,38.7,30.04,SSE,166,2.0,4.0,84,0.00,,,0.00,meteohub,2013-03-07 16:20:00,
2013-03-07 08:25:00,43.3,38.5,30.05,SSW,200,0.0,4.0,83,0.00,,,0.00,meteohub,2013-03-07 16:25:00,
2013-03-07 08:30:00,43.5,38.5,30.05,South,184,4.0,4.0,82,0.00,,,0.00,meteohub,2013-03-07 16:30:00,
2013-03-07 08:35:00,43.7,38.5,30.05,SSW,193,2.0,7.0,82,0.00,,,0.00,meteohub,2013-03-07 16:35:00,
2013-03-07 08:41:00,43.9,39.0,30.05,South,184,0.0,7.0,83,0.00,,,0.00,meteohub,2013-03-07 16:41:00,
2013-03-07 08:46:00,44.1,38.7,30.05,SE,134,0.0,7.0,81,0.00,,,0.00,meteohub,2013-03-07 16:46:00,
2013-03-07 08:51:00,44.2,39.0,30.05,ESE,120,3.0,8.0,82,0.00,,,0.00,meteohub,2013-03-07 16:51:00,
2013-03-07 08:56:00,44.2,38.8,30.05,ESE,121,0.0,8.0,81,0.00,,,0.00,meteohub,2013-03-07 16:56:00,
2013-03-07 09:01:00,44.6,39.2,30.05,SSE,160,0.0,6.0,81,0.00,,,0.00,meteohub,2013-03-07 17:01:00,
2013-03-07 09:06:00,44.8,39.6,30.05,SE,124,0.0,6.0,82,0.00,,,0.00,meteohub,2013-03-07 17:06:00,
2013-03-07 09:11:00,45.0,39.6,30.06,SSE,161,0.0,6.0,81,0.00,,,0.00,meteohub,2013-03-07 17:11:00,
2013-03-07 09:16:00,45.1,39.4,30.06,SE,131,0.0,5.0,80,0.00,,,0.00,meteohub,2013-03-07 17:16:00,
2013-03-07 09:21:00,45.3,39.2,30.06,SE,124,0.0,6.0,79,0.00,,,0.00,meteohub,2013-03-07 17:21:00,
2013-03-07 09:26:00,45.5,39.0,30.06,SE,125,0.0,6.0,78,0.00,,,0.00,meteohub,2013-03-07 17:26:00,
2013-03-07 09:31:00,45.7,39.6,30.06,SE,125,0.0,6.0,79,0.00,,,0.00,meteohub,2013-03-07 17:31:00,
2013-03-07 09:36:00,45.9,38.7,30.06,SSW,206,0.0,7.0,76,0.00,,,0.00,meteohub,2013-03-07 17:36:00,
2013-03-07 09:41:00,46.0,38.8,30.06,SSW,206,0.0,7.0,76,0.00,,,0.00,meteohub,2013-03-07 17:41:00,
2013-03-07 09:46:00,46.2,39.4,30.06,SSW,202,0.0,7.0,77,0.00,,,0.00,meteohub,2013-03-07 17:46:00,
2013-03-07 09:51:00,46.6,39.4,30.06,ESE,121,0.0,3.0,76,0.00,,,0.00,meteohub,2013-03-07 17:51:00,
2013-03-07 09:56:00,46.8,39.2,30.06,South,182,0.0,4.0,75,0.00,,,0.00,meteohub,2013-03-07 17:56:00,
2013-03-07 10:01:00,46.8,39.9,30.06,South,182,0.0,4.0,77,0.00,,,0.00,meteohub,2013-03-07 18:01:00,
2013-03-07 10:07:00,47.1,39.6,30.06,SSW,200,2.0,6.0,75,0.00,,,0.00,meteohub,2013-03-07 18:07:00,
2013-03-07 10:12:00,46.9,39.0,30.06,ESE,111,1.0,5.0,74,0.00,,,0.00,meteohub,2013-03-07 18:12:00,
2013-03-07 10:17:00,47.1,38.8,30.07,SSW,192,7.0,7.0,73,0.00,,,0.00,meteohub,2013-03-07 18:17:00,
2013-03-07 10:22:00,47.1,39.2,30.07,SSW,194,2.0,8.0,74,0.00,,,0.00,meteohub,2013-03-07 18:22:00,
2013-03-07 10:27:00,47.1,38.5,30.07,ESE,120,3.0,8.0,72,0.00,,,0.00,meteohub,2013-03-07 18:27:00,
2013-03-07 10:32:00,47.1,38.5,30.07,South,186,3.0,8.0,72,0.00,,,0.00,meteohub,2013-03-07 18:32:00,
2013-03-07 10:37:00,47.3,38.7,30.07,SE,140,1.0,7.0,72,0.00,,,0.00,meteohub,2013-03-07 18:37:00,
2013-03-07 10:43:00,47.5,39.2,30.07,SE,136,5.0,6.0,73,0.00,,,0.00,meteohub,2013-03-07 18:43:00,
2013-03-07 10:48:00,47.7,39.0,30.07,South,178,2.0,8.0,72,0.00,,,0.00,meteohub,2013-03-07 18:48:00,
2013-03-07 10:53:00,47.8,38.8,30.07,SSW,204,3.0,8.0,71,0.00,,,0.00,meteohub,2013-03-07 18:53:00,
2013-03-07 10:58:00,48.4,39.7,30.07,SE,128,0.0,8.0,72,0.00,,,0.00,meteohub,2013-03-07 18:58:00,
2013-03-07 11:03:00,48.9,39.6,30.07,East,83,0.0,8.0,70,0.00,,,0.00,meteohub,2013-03-07 19:03:00,
2013-03-07 11:09:00,48.9,37.8,30.07,SSW,204,4.0,8.0,65,0.00,,,0.00,meteohub,2013-03-07 19:09:00,
2013-03-07 11:14:00,49.1,38.7,30.07,SW,228,5.0,7.0,67,0.00,,,0.00,meteohub,2013-03-07 19:14:00,
2013-03-07 11:19:00,48.9,38.1,30.07,SW,225,2.0,7.0,66,0.00,,,0.00,meteohub,2013-03-07 19:19:00,
2013-03-07 11:25:00,48.7,37.0,30.07,West,267,1.0,7.0,64,0.00,,,0.00,meteohub,2013-03-07 19:25:00,
2013-03-07 11:30:00,48.7,37.0,30.08,ESE,121,2.0,7.0,64,0.00,,,0.00,meteohub,2013-03-07 19:30:00,
2013-03-07 11:36:00,48.9,38.1,30.08,South,171,0.0,7.0,66,0.00,,,0.00,meteohub,2013-03-07 19:36:00,
2013-03-07 11:42:00,48.9,37.2,30.07,WSW,248,2.0,7.0,64,0.00,,,0.00,meteohub,2013-03-07 19:42:00,
2013-03-07 11:47:00,49.5,39.0,30.07,West,277,2.0,7.0,67,0.00,,,0.00,meteohub,2013-03-07 19:47:00,
2013-03-07 11:52:00,50.0,39.0,30.07,WSW,242,2.0,7.0,66,0.00,,,0.00,meteohub,2013-03-07 19:52:00,
2013-03-07 11:57:00,49.8,37.4,30.07,SSW,195,3.0,6.0,62,0.00,,,0.00,meteohub,2013-03-07 19:57:00,
2013-03-07 12:02:00,49.8,38.5,30.07,WSW,247,0.0,7.0,65,0.00,,,0.00,meteohub,2013-03-07 20:02:00,
2013-03-07 12:07:00,50.2,38.8,30.07,South,188,1.0,7.0,65,0.00,,,0.00,meteohub,2013-03-07 20:07:00,
2013-03-07 12:12:00,50.5,38.5,30.07,WSW,240,0.0,7.0,63,0.00,,,0.00,meteohub,2013-03-07 20:12:00,
2013-03-07 12:17:00,51.1,38.1,30.07,WNW,283,0.0,5.0,61,0.00,,,0.00,meteohub,2013-03-07 20:17:00,
2013-03-07 12:22:00,51.1,37.8,30.07,SW,220,0.0,4.0,60,0.00,,,0.00,meteohub,2013-03-07 20:22:00,
2013-03-07 12:27:00,51.3,39.6,30.07,WSW,250,2.0,3.0,64,0.00,,,0.00,meteohub,2013-03-07 20:27:00,
2013-03-07 12:32:00,51.8,38.8,30.06,West,269,0.0,4.0,61,0.00,,,0.00,meteohub,2013-03-07 20:32:00,
2013-03-07 12:37:00,51.8,37.9,30.06,SE,132,0.0,4.0,59,0.00,,,0.00,meteohub,2013-03-07 20:37:00,
2013-03-07 12:42:00,51.4,38.8,30.06,SSE,165,3.0,7.0,62,0.00,,,0.00,meteohub,2013-03-07 20:42:00,
2013-03-07 12:48:00,51.4,37.2,30.06,SW,225,5.0,7.0,58,0.00,,,0.00,meteohub,2013-03-07 20:48:00,
2013-03-07 12:53:00,51.1,37.8,30.06,East,80,0.0,7.0,60,0.00,,,0.00,meteohub,2013-03-07 20:53:00,
2013-03-07 12:58:00,51.6,38.7,30.06,SSW,192,3.0,6.0,61,0.00,,,0.00,meteohub,2013-03-07 20:58:00,
2013-03-07 13:03:00,51.6,37.8,30.06,WSW,246,0.0,6.0,59,0.00,,,0.00,meteohub,2013-03-07 21:03:00,
2013-03-07 13:08:00,51.6,37.8,30.05,WSW,238,2.0,6.0,59,0.00,,,0.00,meteohub,2013-03-07 21:08:00,
2013-03-07 13:13:00,51.8,38.8,30.05,West,264,2.0,6.0,61,0.00,,,0.00,meteohub,2013-03-07 21:13:00,
2013-03-07 13:18:00,51.6,36.9,30.05,West,270,0.0,7.0,57,0.00,,,0.00,meteohub,2013-03-07 21:18:00,
2013-03-07 13:23:00,51.4,37.2,30.05,NNW,331,0.0,7.0,58,0.00,,,0.00,meteohub,2013-03-07 21:23:00,
2013-03-07 13:28:00,51.4,38.5,30.05,WSW,257,0.0,7.0,61,0.00,,,0.00,meteohub,2013-03-07 21:28:00,
2013-03-07 13:33:00,51.4,39.2,30.05,North,0,0.0,5.0,63,0.00,,,0.00,meteohub,2013-03-07 21:33:00,
2013-03-07 13:38:00,51.4,38.5,30.05,NNW,328,3.0,6.0,61,0.00,,,0.00,meteohub,2013-03-07 21:38:00,
2013-03-07 13:43:00,51.3,38.7,30.05,NNW,327,0.0,6.0,62,0.00,,,0.00,meteohub,2013-03-07 21:43:00,
2013-03-07 13:48:00,51.1,38.5,30.05,West,271,0.0,6.0,62,0.00,,,0.00,meteohub,2013-03-07 21:48:00,
2013-03-07 13:53:00,50.7,39.0,30.05,WNW,283,0.0,6.0,64,0.00,,,0.00,meteohub,2013-03-07 21:53:00,
2013-03-07 13:59:00,50.9,38.3,30.05,West,269,0.0,4.0,62,0.00,,,0.00,meteohub,2013-03-07 21:59:00,
2013-03-07 14:04:00,51.1,39.4,30.05,WSW,257,3.0,5.0,64,0.00,,,0.00,meteohub,2013-03-07 22:04:00,
2013-03-07 14:10:00,50.7,39.0,30.05,WNW,286,2.0,6.0,64,0.00,,,0.00,meteohub,2013-03-07 22:10:00,
2013-03-07 14:15:00,51.1,38.8,30.05,NNW,329,0.0,6.0,63,0.00,,,0.00,meteohub,2013-03-07 22:15:00,
2013-03-07 14:20:00,51.4,37.9,30.05,NNW,346,2.0,6.0,60,0.00,,,0.00,meteohub,2013-03-07 22:20:00,
2013-03-07 14:25:00,51.6,38.7,30.05,SW,222,3.0,5.0,61,0.00,,,0.00,meteohub,2013-03-07 22:25:00,
2013-03-07 14:30:00,51.6,37.4,30.05,SW,217,4.0,5.0,58,0.00,,,0.00,meteohub,2013-03-07 22:30:00,
2013-03-07 14:35:00,51.3,37.8,30.05,West,275,1.0,6.0,60,0.00,,,0.00,meteohub,2013-03-07 22:35:00,
2013-03-07 14:40:00,51.4,38.5,30.05,NW,309,0.0,6.0,61,0.00,,,0.00,meteohub,2013-03-07 22:40:00,
2013-03-07 14:45:00,51.3,38.3,30.05,SSW,205,4.0,6.0,61,0.00,,,0.00,meteohub,2013-03-07 22:45:00,
2013-03-07 14:50:00,51.1,38.5,30.05,West,267,0.0,7.0,62,0.00,,,0.00,meteohub,2013-03-07 22:50:00,
2013-03-07 14:55:00,50.9,37.9,30.05,SW,220,0.0,7.0,61,0.00,,,0.00,meteohub,2013-03-07 22:55:00,
2013-03-07 15:00:00,50.7,37.4,30.06,SW,235,0.0,7.0,60,0.00,,,0.00,meteohub,2013-03-07 23:00:00,
2013-03-07 15:05:00,51.1,38.8,30.05,West,281,4.0,6.0,63,0.00,,,0.00,meteohub,2013-03-07 23:05:00,
2013-03-07 15:10:00,51.6,37.8,30.06,WSW,256,2.0,4.0,59,0.00,,,0.00,meteohub,2013-03-07 23:10:00,
2013-03-07 15:17:00,51.8,37.9,30.06,SW,232,0.0,4.0,59,0.00,,,0.00,meteohub,2013-03-07 23:17:00,
2013-03-07 15:22:00,51.3,37.4,30.06,SW,232,0.0,5.0,59,0.00,,,0.00,meteohub,2013-03-07 23:22:00,
2013-03-07 15:27:00,50.9,37.9,30.06,SSW,207,6.0,6.0,61,0.00,,,0.00,meteohub,2013-03-07 23:27:00,
2013-03-07 15:32:00,50.7,36.0,30.06,SSW,208,3.0,6.0,57,0.00,,,0.00,meteohub,2013-03-07 23:32:00,
2013-03-07 15:37:00,50.5,36.3,30.06,West,267,0.0,7.0,58,0.00,,,0.00,meteohub,2013-03-07 23:37:00,
2013-03-07 15:42:00,50.9,35.8,30.06,SSW,192,0.0,7.0,56,0.00,,,0.00,meteohub,2013-03-07 23:42:00,
2013-03-07 15:47:00,51.6,36.5,30.06,SE,127,2.0,7.0,56,0.00,,,0.00,meteohub,2013-03-07 23:47:00,
2013-03-07 15:52:00,51.6,39.4,30.06,SE,146,0.0,8.0,63,0.00,,,0.00,meteohub,2013-03-07 23:52:00,
2013-03-07 15:57:00,52.0,39.4,30.06,East,100,5.0,9.0,62,0.00,,,0.00,meteohub,2013-03-07 23:57:00,
2013-03-07 16:04:00,51.3,40.3,30.06,SE,128,9.0,9.0,66,0.00,,,0.00,meteohub,2013-03-08 00:04:00,
2013-03-07 16:09:00,49.3,41.0,30.06,SE,135,1.0,14.0,73,0.00,,,0.00,meteohub,2013-03-08 00:09:00,
2013-03-07 16:14:00,48.6,41.4,30.06,SE,126,0.0,14.0,76,0.00,,,0.00,meteohub,2013-03-08 00:14:00,
2013-03-07 16:19:00,48.9,41.4,30.06,SE,126,2.0,12.0,75,0.00,,,0.00,meteohub,2013-03-08 00:19:00,
2013-03-07 16:25:00,49.3,40.6,30.06,SE,130,0.0,6.0,72,0.00,,,0.00,meteohub,2013-03-08 00:25:00,
2013-03-07 16:30:00,49.1,39.7,30.06,SE,130,0.0,3.0,70,0.00,,,0.00,meteohub,2013-03-08 00:30:00,
2013-03-07 16:35:00,48.7,40.1,30.06,SE,136,0.0,3.0,72,0.00,,,0.00,meteohub,2013-03-08 00:35:00,
2013-03-07 16:40:00,48.7,40.8,30.06,SE,136,0.0,4.0,74,0.00,,,0.00,meteohub,2013-03-08 00:40:00,
2013-03-07 16:45:00,48.7,40.8,30.06,SE,136,0.0,4.0,74,0.00,,,0.00,meteohub,2013-03-08 00:45:00,
2013-03-07 16:50:00,48.7,40.1,30.06,SE,136,0.0,4.0,72,0.00,,,0.00,meteohub,2013-03-08 00:50:00,
2013-03-07 16:56:00,48.9,40.3,30.06,NW,325,2.0,2.0,72,0.00,,,0.00,meteohub,2013-03-08 00:56:00,
2013-03-07 17:01:00,48.6,39.2,30.06,North,355,3.0,7.0,70,0.00,,,0.00,meteohub,2013-03-08 01:01:00,
2013-03-07 17:06:00,48.0,38.7,30.06,WNW,298,2.0,7.0,70,0.00,,,0.00,meteohub,2013-03-08 01:06:00,
2013-03-07 17:11:00,47.8,38.5,30.06,North,5,0.0,7.0,70,0.00,,,0.00,meteohub,2013-03-08 01:11:00,
2013-03-07 17:16:00,47.7,38.7,30.06,NNE,30,0.0,6.0,71,0.00,,,0.00,meteohub,2013-03-08 01:16:00,
2013-03-07 17:21:00,47.7,39.0,30.06,NE,48,0.0,5.0,72,0.00,,,0.00,meteohub,2013-03-08 01:21:00,
2013-03-07 17:26:00,47.7,39.7,30.06,NE,49,0.0,2.0,74,0.00,,,0.00,meteohub,2013-03-08 01:26:00,
2013-03-07 17:32:00,47.5,39.2,30.06,NE,49,0.0,2.0,73,0.00,,,0.00,meteohub,2013-03-08 01:32:00,
2013-03-07 17:37:00,46.9,39.0,30.06,SE,129,0.0,3.0,74,0.00,,,0.00,meteohub,2013-03-08 01:37:00,
2013-03-07 17:42:00,46.8,39.6,30.06,SE,129,0.0,3.0,76,0.00,,,0.00,meteohub,2013-03-08 01:42:00,
2013-03-07 17:47:00,46.0,38.8,30.06,SE,129,0.0,3.0,76,0.00,,,0.00,meteohub,2013-03-08 01:47:00,
2013-03-07 17:52:00,45.5,39.0,30.06,SE,129,0.0,0.0,78,0.00,,,0.00,meteohub,2013-03-08 01:52:00,
2013-03-07 17:57:00,45.0,39.2,30.06,SE,129,0.0,0.0,80,0.00,,,0.00,meteohub,2013-03-08 01:57:00,
2013-03-07 18:02:00,44.2,38.5,30.06,SE,129,0.0,0.0,80,0.00,,,0.00,meteohub,2013-03-08 02:02:00,
2013-03-07 18:07:00,43.7,38.3,30.06,SE,129,0.0,0.0,81,0.00,,,0.00,meteohub,2013-03-08 02:07:00,
2013-03-07 18:12:00,42.8,37.8,30.06,SE,129,0.0,0.0,82,0.00,,,0.00,meteohub,2013-03-08 02:12:00,
2013-03-07 18:17:00,42.4,37.4,30.06,SE,129,0.0,0.0,82,0.00,,,0.00,meteohub,2013-03-08 02:17:00,
2013-03-07 18:22:00,41.5,36.7,30.06,SE,129,0.0,0.0,83,0.00,,,0.00,meteohub,2013-03-08 02:22:00,
2013-03-07 18:27:00,41.2,36.5,30.07,SE,129,0.0,0.0,83,0.00,,,0.00,meteohub,2013-03-08 02:27:00,
2013-03-07 18:32:00,40.6,36.1,30.07,SE,129,0.0,0.0,84,0.00,,,0.00,meteohub,2013-03-08 02:32:00,
2013-03-07 18:37:00,40.1,35.6,30.08,SE,129,0.0,0.0,84,0.00,,,0.00,meteohub,2013-03-08 02:37:00,
2013-03-07 18:42:00,39.7,35.2,30.07,SE,129,0.0,0.0,84,0.00,,,0.00,meteohub,2013-03-08 02:42:00,
2013-03-07 18:47:00,39.4,34.9,30.07,SE,129,0.0,0.0,84,0.00,,,0.00,meteohub,2013-03-08 02:47:00,
2013-03-07 18:52:00,39.0,34.5,30.08,SE,129,0.0,0.0,84,0.00,,,0.00,meteohub,2013-03-08 02:52:00,
2013-03-07 18:57:00,38.7,34.0,30.08,SE,129,0.0,0.0,83,0.00,,,0.00,meteohub,2013-03-08 02:57:00,
2013-03-07 19:02:00,38.5,33.8,30.08,SE,129,0.0,0.0,83,0.00,,,0.00,meteohub,2013-03-08 03:02:00,
2013-03-07 19:07:00,38.1,33.4,30.08,SE,129,0.0,0.0,83,0.00,,,0.00,meteohub,2013-03-08 03:07:00,
2013-03-07 19:12:00,37.9,32.9,30.08,SE,129,0.0,0.0,82,0.00,,,0.00,meteohub,2013-03-08 03:12:00,
2013-03-07 19:17:00,37.8,32.7,30.08,SE,129,0.0,1.0,82,0.00,,,0.00,meteohub,2013-03-08 03:17:00,
2013-03-07 19:22:00,37.4,32.4,30.08,SE,129,0.0,1.0,82,0.00,,,0.00,meteohub,2013-03-08 03:22:00,
2013-03-07 19:27:00,37.0,32.0,30.09,SE,129,0.0,0.0,82,0.00,,,0.00,meteohub,2013-03-08 03:27:00,
2013-03-07 19:32:00,37.0,31.8,30.09,SE,129,0.0,0.0,81,0.00,,,0.00,meteohub,2013-03-08 03:32:00,
2013-03-07 19:37:00,36.9,31.6,30.09,SE,129,0.0,0.0,81,0.00,,,0.00,meteohub,2013-03-08 03:37:00,
2013-03-07 19:42:00,36.7,31.5,30.09,SE,129,0.0,0.0,81,0.00,,,0.00,meteohub,2013-03-08 03:42:00,
2013-03-07 19:47:00,36.5,30.9,30.09,SE,129,0.0,0.0,80,0.00,,,0.00,meteohub,2013-03-08 03:47:00,
2013-03-07 19:52:00,36.3,30.7,30.09,SE,129,0.0,0.0,80,0.00,,,0.00,meteohub,2013-03-08 03:52:00,
2013-03-07 19:57:00,36.1,30.6,30.09,SE,129,0.0,0.0,80,0.00,,,0.00,meteohub,2013-03-08 03:57:00,
2013-03-07 20:02:00,36.0,30.4,30.09,SE,129,0.0,0.0,80,0.00,,,0.00,meteohub,2013-03-08 04:02:00,
2013-03-07 20:07:00,36.0,30.0,30.09,SE,129,0.0,0.0,79,0.00,,,0.00,meteohub,2013-03-08 04:07:00,
2013-03-07 20:12:00,36.0,30.0,30.09,SE,129,0.0,0.0,79,0.00,,,0.00,meteohub,2013-03-08 04:12:00,
2013-03-07 20:17:00,35.8,29.7,30.09,SE,129,0.0,0.0,78,0.00,,,0.00,meteohub,2013-03-08 04:17:00,
2013-03-07 20:22:00,35.6,29.7,30.09,SE,129,0.0,0.0,79,0.00,,,0.00,meteohub,2013-03-08 04:22:00,
2013-03-07 20:27:00,35.2,29.3,30.09,SE,129,0.0,0.0,79,0.00,,,0.00,meteohub,2013-03-08 04:27:00,
2013-03-07 20:32:00,35.1,29.1,30.09,SE,129,0.0,0.0,79,0.00,,,0.00,meteohub,2013-03-08 04:32:00,
2013-03-07 20:37:00,34.9,29.1,30.09,SE,129,0.0,0.0,79,0.00,,,0.00,meteohub,2013-03-08 04:37:00,
2013-03-07 20:42:00,34.7,28.9,30.09,SE,129,0.0,0.0,79,0.00,,,0.00,meteohub,2013-03-08 04:42:00,
2013-03-07 20:47:00,34.5,28.8,30.09,SE,129,0.0,0.0,79,0.00,,,0.00,meteohub,2013-03-08 04:47:00,
2013-03-07 20:52:00,34.3,28.6,30.09,SE,129,0.0,0.0,79,0.00,,,0.00,meteohub,2013-03-08 04:52:00,
2013-03-07 20:57:00,34.2,28.4,30.09,SE,129,0.0,0.0,79,0.00,,,0.00,meteohub,2013-03-08 04:57:00,
2013-03-07 21:00:00,34.2,28.4,30.09,SE,129,0.0,0.0,79,0.00,,,0.00,meteohub,2013-03-08 05:00:00,
2013-03-07 21:01:00,34.0,28.2,30.09,SE,129,0.0,0.0,79,0.00,,,0.00,meteohub,2013-03-08 05:01:00,
2013-03-07 21:06:00,34.0,27.9,30.09,SE,129,0.0,0.0,78,0.00,,,0.00,meteohub,2013-03-08 05:06:00,
2013-03-07 21:11:00,33.6,27.5,30.09,SE,129,0.0,0.0,78,0.00,,,0.00,meteohub,2013-03-08 05:11:00,
2013-03-07 21:16:00,33.4,27.3,30.09,SE,129,0.0,0.0,78,0.00,,,0.00,meteohub,2013-03-08 05:16:00,
2013-03-07 21:21:00,33.4,27.3,30.09,SE,129,0.0,0.0,78,0.00,,,0.00,meteohub,2013-03-08 05:21:00,
2013-03-07 21:26:00,33.3,27.1,30.09,SE,129,0.0,0.0,78,0.00,,,0.00,meteohub,2013-03-08 05:26:00,
2013-03-07 21:31:00,32.9,27.1,30.09,SE,129,0.0,0.0,79,0.00,,,0.00,meteohub,2013-03-08 05:31:00,
2013-03-07 21:36:00,32.7,27.0,30.09,SE,129,0.0,0.0,79,0.00,,,0.00,meteohub,2013-03-08 05:36:00,
2013-03-07 21:41:00,32.5,26.4,30.09,SE,129,0.0,0.0,78,0.00,,,0.00,meteohub,2013-03-08 05:41:00,
2013-03-07 21:46:00,32.5,26.4,30.09,SE,129,0.0,0.0,78,0.00,,,0.00,meteohub,2013-03-08 05:46:00,
2013-03-07 21:51:00,32.5,26.4,30.10,SE,129,0.0,0.0,78,0.00,,,0.00,meteohub,2013-03-08 05:51:00,
2013-03-07 21:56:00,32.4,26.2,30.09,SE,129,0.0,0.0,78,0.00,,,0.00,meteohub,2013-03-08 05:56:00,
2013-03-07 22:01:00,32.4,26.2,30.10,SE,129,0.0,0.0,78,0.00,,,0.00,meteohub,2013-03-08 06:01:00,
2013-03-07 22:06:00,32.2,25.7,30.09,SE,129,0.0,0.0,77,0.00,,,0.00,meteohub,2013-03-08 06:06:00,
2013-03-07 22:11:00,32.2,25.7,30.09,SE,129,0.0,0.0,77,0.00,,,0.00,meteohub,2013-03-08 06:11:00,
2013-03-07 22:16:00,32.0,25.7,30.09,SE,129,0.0,0.0,77,0.00,,,0.00,meteohub,2013-03-08 06:16:00,
2013-03-07 22:21:00,32.0,25.7,30.09,SE,129,0.0,0.0,77,0.00,,,0.00,meteohub,2013-03-08 06:21:00,
2013-03-07 22:26:00,31.8,25.5,30.09,SE,129,0.0,0.0,77,0.00,,,0.00,meteohub,2013-03-08 06:26:00,
2013-03-07 22:31:00,31.8,25.5,30.10,SE,129,0.0,0.0,77,0.00,,,0.00,meteohub,2013-03-08 06:31:00,
2013-03-07 22:36:00,31.6,25.3,30.10,SE,129,0.0,0.0,77,0.00,,,0.00,meteohub,2013-03-08 06:36:00,
2013-03-07 22:41:00,31.6,25.3,30.10,SE,129,0.0,0.0,77,0.00,,,0.00,meteohub,2013-03-08 06:41:00,
2013-03-07 22:46:00,31.5,25.2,30.10,SE,129,0.0,0.0,77,0.00,,,0.00,meteohub,2013-03-08 06:46:00,
2013-03-07 22:51:00,31.3,25.0,30.10,SE,129,0.0,0.0,77,0.00,,,0.00,meteohub,2013-03-08 06:51:00,
2013-03-07 22:56:00,31.3,25.0,30.10,SE,129,0.0,0.0,77,0.00,,,0.00,meteohub,2013-03-08 06:56:00,
2013-03-07 23:01:00,31.3,24.6,30.10,SE,129,0.0,0.0,76,0.00,,,0.00,meteohub,2013-03-08 07:01:00,
2013-03-07 23:06:00,30.9,24.6,30.09,SE,129,0.0,0.0,77,0.00,,,0.00,meteohub,2013-03-08 07:06:00,
2013-03-07 23:11:00,30.9,24.6,30.10,SE,129,0.0,0.0,77,0.00,,,0.00,meteohub,2013-03-08 07:11:00,
2013-03-07 23:16:00,30.7,24.4,30.10,SE,129,0.0,0.0,77,0.00,,,0.00,meteohub,2013-03-08 07:16:00,
2013-03-07 23:21:00,30.9,24.3,30.10,SE,129,0.0,0.0,76,0.00,,,0.00,meteohub,2013-03-08 07:21:00,
2013-03-07 23:26:00,30.9,24.3,30.10,SE,129,0.0,0.0,76,0.00,,,0.00,meteohub,2013-03-08 07:26:00,
2013-03-07 23:31:00,30.7,24.1,30.10,SE,129,0.0,0.0,76,0.00,,,0.00,meteohub,2013-03-08 07:31:00,
2013-03-07 23:36:00,30.7,24.1,30.10,SE,129,0.0,0.0,76,0.00,,,0.00,meteohub,2013-03-08 07:36:00,
2013-03-07 23:41:00,30.6,23.9,30.10,SE,129,0.0,0.0,76,0.00,,,0.00,meteohub,2013-03-08 07:41:00,
2013-03-07 23:46:00,30.6,23.9,30.10,SE,129,0.0,0.0,76,0.00,,,0.00,meteohub,2013-03-08 07:46:00,
2013-03-07 23:51:00,30.6,23.9,30.10,SE,129,0.0,0.0,76,0.00,,,0.00,meteohub,2013-03-08 07:51:00,
2013-03-07 23:57:00,30.6,23.9,30.10,SE,129,0.0,0.0,76,0.00,,,0.00,meteohub,2013-03-08 07:57:00,